Latest Coastal Weather Observations for Kiama

IDN60701

Issued at 1:52 am EDT Wednesday 4 March 2015 (issued every 10 minutes, with the page automatically refreshed every 10 minutes)

About coastal observations | Map of coastal stations | Coastal observations for NSW | Marine services | Other Formats
Station Details ID: 068242 Name: KIAMA (BOMBO HEADLAND) Lat: -34.65 Lon: 150.86 Height: 15.5 m
Data from the previous 72 hours. | See also: Recent months at Kiama
Date/Time
EDT
Temp

°C
Wind Pressure Rain
since 9am
mm
Weather Cloud Vis
km
Sea
Height
m
Swell
Dir
 
Speed
knots
Gust
knots
hPa Trend Height
m
Period
s
Dir
04/01:30am 21.0 CALM 0 0 - - 0.0 - - - - - - -
04/01:00am 21.2 CALM 0 0 - - 0.0 - - - - - - -
04/12:30am 21.3 SSW 2 5 - - 0.0 - - - - - - -
04/12:00am 21.4 SSW 4 7 - - 0.0 - - - - - - -
 
Date/Time
EDT
Temp

°C
Wind Pressure Rain
since 9am
mm
Weather Cloud Vis
km
Sea
Height
m
Swell
Dir
 
Speed
knots
Gust
knots
hPa Trend Height
m
Period
s
Dir
03/11:30pm 21.1 SW 2 3 - - 0.0 - - - - - - -
03/11:00pm 20.9 SW 2 3 - - 0.0 - - - - - - -
03/10:30pm 20.9 SW 2 5 - - 0.0 - - - - - - -
03/10:00pm 21.4 SSW 7 8 - - 0.0 - - - - - - -
03/09:30pm 21.5 S 7 9 - - 0.0 - - - - - - -
03/09:00pm 21.6 S 7 9 - - 0.0 - - - - - - -
03/08:30pm 21.8 S 7 10 - - 0.0 - - - - - - -
03/08:00pm 22.3 CALM 0 0 - - 0.0 - - - - - - -
03/07:30pm 22.4 CALM 0 0 - - 0.0 - - - - - - -
03/07:00pm 22.5 NE 2 3 - - 0.0 - - - - - - -
03/06:30pm 22.9 NE 3 5 - - 0.0 - - - - - - -
03/06:00pm 23.3 NNE 4 6 - - 0.0 - - - - - - -
03/05:30pm 23.5 NNE 4 5 - - 0.0 - - - - - - -
03/05:00pm 23.7 NE 3 4 - - 0.0 - - - - - - -
03/04:30pm 23.9 NE 3 5 - - 0.0 - - - - - - -
03/04:00pm 24.0 NE 5 6 - - 0.0 - - - - - - -
03/03:30pm 23.5 NNE 5 8 - - 0.0 - - - - - - -
03/03:00pm 23.8 NNE 7 10 - - 0.0 - - - - - - -
03/02:30pm 24.0 NE 6 8 - - 0.0 - - - - - - -
03/02:00pm 24.4 NE 7 10 - - 0.0 - - - - - - -
03/01:30pm 24.7 NE 8 10 - - 0.0 - - - - - - -
03/01:00pm 23.7 NE 12 15 - - 0.0 - - - - - - -
03/12:30pm 24.1 NE 12 15 - - 0.0 - - - - - - -
03/12:00pm 23.8 NNE 11 15 - - 0.0 - - - - - - -
03/11:30am 23.5 NNE 10 14 - - 0.0 - - - - - - -
03/11:00am 23.8 NNE 9 13 - - 0.0 - - - - - - -
03/10:30am 23.5 NNE 10 13 - - 0.0 - - - - - - -
03/10:00am 22.9 N 10 14 - - 0.0 - - - - - - -
03/09:30am 22.3 N 7 12 - - 0.0 - - - - - - -
03/09:00am 21.4 NNW 6 9 - - 0.0 - - - - - - -
03/08:30am 20.0 NNW 4 6 - - 0.0 - - - - - - -
03/08:00am 19.6 NNW 5 8 - - 0.0 - - - - - - -
03/07:30am 18.9 NNW 5 8 - - 0.0 - - - - - - -
03/07:00am 18.4 NNW 6 8 - - 0.0 - - - - - - -
03/06:30am 18.0 NW 6 9 - - 0.0 - - - - - - -
03/06:00am 17.9 NW 7 8 - - 0.0 - - - - - - -
03/05:30am 18.0 WNW 7 8 - - 0.0 - - - - - - -
03/05:00am 18.1 NW 5 7 - - 0.0 - - - - - - -
03/04:30am 18.3 NW 5 7 - - 0.0 - - - - - - -
03/04:00am 18.9 NNW 6 9 - - 0.0 - - - - - - -
03/03:30am 18.8 NNW 4 7 - - 0.0 - - - - - - -
03/03:00am 19.2 NNW 4 6 - - 0.0 - - - - - - -
03/02:30am 19.4 NW 4 6 - - 0.0 - - - - - - -
03/02:00am 19.7 NNW 4 8 - - 0.0 - - - - - - -
03/01:30am 19.8 NW 3 5 - - 0.0 - - - - - - -
03/01:00am 19.8 NW 4 5 - - 0.0 - - - - - - -
03/12:30am 20.0 NNW 3 4 - - 0.0 - - - - - - -
03/12:00am 20.0 NNW 2 3 - - 0.0 - - - - - - -
 
Date/Time
EDT
Temp

°C
Wind Pressure Rain
since 9am
mm
Weather Cloud Vis
km
Sea
Height
m
Swell
Dir
 
Speed
knots
Gust
knots
hPa Trend Height
m
Period
s
Dir
02/11:30pm 20.0 WNW 4 6 - - 0.0 - - - - - - -
02/11:00pm 20.0 NW 4 5 - - 0.0 - - - - - - -
02/10:30pm 20.1 NW 5 6 - - 0.0 - - - - - - -
02/10:00pm 20.4 WNW 4 5 - - 0.0 - - - - - - -
02/09:30pm 20.7 N 4 5 - - 0.0 - - - - - - -
02/09:00pm 20.7 N 3 6 - - 0.0 - - - - - - -
02/08:30pm 20.6 NNW 2 4 - - 0.0 - - - - - - -
02/08:00pm 20.6 N 2 3 - - 0.0 - - - - - - -
02/07:30pm 20.8 CALM 0 1 - - 0.0 - - - - - - -
02/07:00pm 21.0 CALM 0 0 - - 0.0 - - - - - - -
02/06:30pm 21.3 CALM 0 2 - - 0.0 - - - - - - -
02/06:00pm 22.0 CALM 0 2 - - 0.0 - - - - - - -
02/05:30pm 21.5 SSE 2 3 - - 0.0 - - - - - - -
02/05:00pm 21.2 S 2 4 - - 0.0 - - - - - - -
02/04:30pm 21.5 SSE 4 5 - - 0.0 - - - - - - -
02/04:00pm 21.4 S 5 7 - - 0.0 - - - - - - -
02/03:30pm 21.2 S 7 9 - - 0.0 - - - - - - -
02/03:00pm 21.4 S 7 11 - - 0.0 - - - - - - -
02/02:30pm 21.6 S 9 12 - - 0.0 - - - - - - -
02/02:00pm 21.8 S 10 13 - - 0.0 - - - - - - -
02/01:30pm 21.7 S 10 14 - - 0.0 - - - - - - -
02/01:00pm 21.3 S 11 16 - - 0.0 - - - - - - -
02/12:30pm 21.7 S 10 14 - - 0.0 - - - - - - -
02/12:00pm 21.6 S 12 17 - - 0.0 - - - - - - -
02/11:30am 21.3 S 12 19 - - 0.0 - - - - - - -
02/11:00am 20.8 S 12 17 - - 0.0 - - - - - - -
02/10:30am 20.5 SSW 13 20 - - 0.0 - - - - - - -
02/10:00am 19.9 SSW 15 20 - - 0.0 - - - - - - -
02/09:30am 19.8 SSW 14 19 - - 0.0 - - - - - - -
02/09:00am 19.2 SSW 16 20 - - 4.4 - - - - - - -
02/08:30am 18.8 SSW 16 22 - - 4.4 - - - - - - -
02/08:00am 18.3 SW 15 19 - - 4.4 - - - - - - -
02/07:30am 18.0 SW 14 21 - - 4.4 - - - - - - -
02/07:00am 17.8 SSW 16 22 - - 4.4 - - - - - - -
02/06:30am 17.7 SW 15 20 - - 4.4 - - - - - - -
02/06:00am 17.8 SW 12 15 - - 4.4 - - - - - - -
02/05:30am 18.0 SW 15 20 - - 4.4 - - - - - - -
02/05:00am 17.8 SW 12 16 - - 4.4 - - - - - - -
02/04:30am 18.0 SW 11 14 - - 4.4 - - - - - - -
02/04:00am 18.4 SW 11 16 - - 4.4 - - - - - - -
02/03:30am 18.1 SW 11 16 - - 4.4 - - - - - - -
02/03:00am 18.5 SSW 15 21 - - 4.4 - - - - - - -
02/02:30am 18.6 SSW 15 20 - - 4.4 - - - - - - -
02/02:00am 18.7 SSW 14 19 - - 4.4 - - - - - - -
02/01:30am 19.0 SSW 14 19 - - 4.4 - - - - - - -
02/01:00am 19.5 SSW 17 25 - - 4.4 - - - - - - -
02/12:30am 19.9 S 26 33 - - 4.4 - - - - - - -
02/12:00am 20.0 S 27 36 - - 4.4 - - - - - - -
 
Date/Time
EDT
Temp

°C
Wind Pressure Rain
since 9am
mm
Weather Cloud Vis
km
Sea
Height
m
Swell
Dir
 
Speed
knots
Gust
knots
hPa Trend Height
m
Period
s
Dir
01/11:30pm 20.0 SSW 27 35 - - 4.4 - - - - - - -
01/11:00pm 20.1 SSW 27 35 - - 4.4 - - - - - - -
01/10:40pm 20.4 S 26 36 - - 4.4 - - - - - - -
01/10:30pm 20.3 SSW 26 35 - - 4.4 - - - - - - -
01/10:00pm 20.4 S 24 31 - - 4.4 - - - - - - -
01/09:30pm 20.4 S 25 32 - - 4.4 - - - - - - -
01/09:00pm 20.5 SSW 22 29 - - 4.4 - - - - - - -
01/08:30pm 20.4 S 23 29 - - 4.4 - - - - - - -
01/08:00pm 20.6 SSW 25 32 - - 4.4 - - - - - - -
01/07:30pm 20.5 S 26 35 - - 4.4 - - - - - - -
01/07:00pm 20.4 S 26 32 - - 4.4 - - - - - - -
01/06:48pm 20.3 SSW 24 35 - - 4.4 - - - - - - -
01/06:30pm 20.3 SSW 25 33 - - 4.4 - - - - - - -
01/06:00pm 20.1 S 25 35 - - 4.4 - - - - - - -
01/05:31pm 20.0 S 22 32 - - 4.4 - - - - - - -
01/05:30pm 20.0 S 22 31 - - 4.4 - - - - - - -
01/05:00pm 20.5 SSW 21 27 - - 4.4 - - - - - - -
01/04:30pm 20.8 SSW 23 29 - - 4.4 - - - - - - -
01/04:00pm 20.9 SSW 29 35 - - 4.2 - - - - - - -
01/03:30pm 21.2 S 27 37 - - 4.2 - - - - - - -
01/03:10pm 21.8 S 25 35 - - 4.2 - - - - - - -
01/03:00pm 21.8 S 26 36 - - 4.0 Rain - - - - - -
01/02:47pm 22.7 SSW 26 39 - - 1.6 - - - - - - -
01/02:30pm 23.6 SSW 25 31 - - 0.0 - - - - - - -
01/02:01pm 24.8 S 22 33 - - 0.0 - - - - - - -
01/02:00pm 24.7 S 22 29 - - 0.0 - - - - - - -
01/01:42pm 24.1 S 23 33 - - 0.0 - - - - - - -
01/01:34pm 25.6 SSW 8 30 - - 0.0 - - - - - - -
01/01:30pm 25.9 WNW 5 8 - - 0.0 - - - - - - -
01/01:00pm 24.7 N 5 8 - - 0.0 - - - - - - -
01/12:30pm 25.5 NNE 6 9 - - 0.0 - - - - - - -
01/12:00pm 26.4 NNE 6 9 - - 0.0 - - - - - - -
01/11:30am 25.9 NE 5 7 - - 0.0 - - - - - - -
01/11:00am 25.7 NE 5 7 - - 0.0 - - - - - - -
01/10:30am 25.0 NNE 10 13 - - 0.0 - - - - - - -
01/10:00am 25.5 NNE 9 12 - - 0.0 - - - - - - -
01/09:30am 25.2 NNE 8 11 - - 0.0 - - - - - - -
01/09:00am 24.0 N 9 11 - - 0.0 - - - - - - -
01/08:30am 23.6 N 7 10 - - 0.0 - - - - - - -
01/08:00am 21.9 N 6 7 - - 0.0 - - - - - - -
01/07:30am 21.3 N 5 6 - - 0.0 - - - - - - -
01/07:00am 20.1 N 5 6 - - 0.0 - - - - - - -
01/06:30am 20.0 N 4 5 - - 0.0 - - - - - - -
01/06:00am 20.5 N 5 6 - - 0.0 - - - - - - -
01/05:30am 21.2 N 4 6 - - 0.0 - - - - - - -
01/05:00am 21.5 NW 5 7 - - 0.0 - - - - - - -
01/04:30am 21.3 NNW 3 5 - - 0.0 - - - - - - -
01/04:00am 21.4 NNW 2 5 - - 0.0 - - - - - - -
01/03:30am 21.3 NW 1 4 - - 0.0 - - - - - - -
01/03:00am 21.4 NNW 2 5 - - 0.0 - - - - - - -
01/02:30am 22.1 N 8 11 - - 0.0 - - - - - - -
01/02:00am 21.6 NNW 4 6 - - 0.0 - - - - - - -

Other Formats:

Comma delimited format used in spreadsheet applications
http://www.bom.gov.au/fwo/IDN60701/IDN60701.95749.axf

JavaScript Object Notation format (JSON) in row-major order
http://www.bom.gov.au/fwo/IDN60701/IDN60701.95749.json